Time;durP1;ratioP1;P1;durP2;ratioP2;P2;SDS_P1;SDS_P2;PMS_P1;PMS_P2;Temp;Humidity;BMP_temperature;BMP_pressure;BME280_temperature;BME280_humidity;BME280_pressure;Samples;Min_cycle;Max_cycle;Signal;HPM_P1;HPM_P2
2022/09/07 00:01:12;;;;;;;46.23;43.27;;;17.70;99.90;;;;;;5045313;28;20271;-73
2022/09/07 00:03:38;;;;;;;25.23;23.37;;;17.70;99.90;;;;;;5049941;28;20179;-73
2022/09/07 00:06:07;;;;;;;54.23;50.67;;;17.70;99.90;;;;;;5050937;28;20189;-73
2022/09/07 00:08:33;;;;;;;41.47;38.87;;;17.60;99.90;;;;;;5042925;28;20211;-73
2022/09/07 00:11:01;;;;;;;37.30;34.93;;;17.50;99.90;;;;;;5029464;28;20286;-73
2022/09/07 00:13:30;;;;;;;32.80;30.67;;;17.50;99.90;;;;;;5029372;28;20274;-74
2022/09/07 00:15:57;;;;;;;27.43;25.73;;;17.50;99.90;;;;;;5030541;28;20183;-73
2022/09/07 00:18:23;;;;;;;27.07;25.23;;;17.50;99.90;;;;;;5029998;28;20233;-73
2022/09/07 00:21:04;;;;;;;27.47;25.77;;;17.40;99.90;;;;;;5029808;28;20207;-74
2022/09/07 00:23:31;;;;;;;36.57;34.33;;;17.40;99.90;;;;;;5030751;28;20249;-73
2022/09/07 00:26:01;;;;;;;21.63;19.63;;;17.50;99.90;;;;;;5031050;28;20179;-73
2022/09/07 00:28:27;;;;;;;25.37;23.53;;;17.50;99.90;;;;;;5028343;28;20209;-73
2022/09/07 00:30:54;;;;;;;35.53;33.40;;;17.50;99.90;;;;;;5030487;28;20202;-74
2022/09/07 00:33:19;;;;;;;27.07;24.77;;;17.50;99.90;;;;;;5029879;28;20183;-74
2022/09/07 00:35:45;;;;;;;19.17;17.47;;;17.60;99.90;;;;;;5029939;28;20646;-74
2022/09/07 00:38:11;;;;;;;22.03;20.47;;;17.60;99.90;;;;;;5045132;28;20281;-74
2022/09/07 00:40:37;;;;;;;18.00;16.80;;;17.50;99.90;;;;;;5029457;28;20246;-73
2022/09/07 00:43:04;;;;;;;27.00;25.13;;;17.50;99.90;;;;;;5030324;28;20193;-73
2022/09/07 00:45:31;;;;;;;38.90;36.40;;;17.50;99.90;;;;;;5030785;28;20305;-73
2022/09/07 00:48:13;;;;;;;34.00;31.50;;;17.50;99.90;;;;;;5029541;28;20210;-72
2022/09/07 00:50:52;;;;;;;18.33;17.10;;;17.50;99.90;;;;;;5016338;28;20282;-73
2022/09/07 00:53:25;;;;;;;15.20;13.70;;;17.40;99.90;;;;;;5029273;28;20175;-73
2022/09/07 00:55:52;;;;;;;21.40;19.53;;;17.30;99.90;;;;;;5030585;28;20179;-73
2022/09/07 00:58:20;;;;;;;36.30;34.07;;;17.30;99.90;;;;;;5029010;28;20171;-73
2022/09/07 01:00:47;;;;;;;34.30;31.77;;;17.30;99.90;;;;;;5030319;28;20260;-73
2022/09/07 01:03:22;;;;;;;27.27;25.50;;;17.20;99.90;;;;;;5040650;28;20159;-72
2022/09/07 01:06:10;;;;;;;36.13;33.53;;;17.20;99.90;;;;;;5036527;28;20186;-73
2022/09/07 01:08:36;;;;;;;53.83;50.83;;;17.20;99.90;;;;;;5029328;28;20198;-73
2022/09/07 01:11:03;;;;;;;47.93;45.17;;;17.10;99.90;;;;;;5029880;28;20253;-73
2022/09/07 01:13:29;;;;;;;54.23;50.97;;;17.10;99.90;;;;;;5030143;28;20186;-73
2022/09/07 01:16:35;;;;;;;52.37;49.13;;;17.00;99.90;;;;;;5030346;28;20184;-73
2022/09/07 01:19:25;;;;;;;43.30;40.63;;;17.00;99.90;;;;;;5029142;28;20179;-73
2022/09/07 01:22:03;;;;;;;41.30;38.50;;;17.00;99.90;;;;;;5030931;28;20594;-73
2022/09/07 01:24:44;;;;;;;65.20;61.00;;;17.00;99.90;;;;;;5032509;28;20194;-73
2022/09/07 01:27:31;;;;;;;118.90;112.40;;;17.00;99.90;;;;;;5033287;28;20207;-74
2022/09/07 01:30:08;;;;;;;71.07;66.87;;;16.90;99.90;;;;;;5033697;28;20721;-74
2022/09/07 01:32:42;;;;;;;78.50;73.53;;;16.90;99.90;;;;;;5034016;28;20206;-73
2022/09/07 01:35:37;;;;;;;64.80;60.93;;;16.90;99.90;;;;;;5033832;28;20174;-73
2022/09/07 01:38:27;;;;;;;94.10;88.07;;;17.00;99.90;;;;;;5027709;28;20195;-72
2022/09/07 01:41:14;;;;;;;82.40;77.37;;;17.00;99.90;;;;;;5033143;28;20214;-73
2022/09/07 01:44:16;;;;;;;99.83;94.40;;;17.00;99.90;;;;;;5033577;28;20186;-73
2022/09/07 01:46:55;;;;;;;128.40;120.93;;;17.00;99.90;;;;;;5032338;28;20189;-71
2022/09/07 01:49:30;;;;;;;71.53;67.07;;;17.00;99.90;;;;;;5032637;28;20207;-73
2022/09/07 01:52:02;;;;;;;137.37;129.67;;;17.20;99.90;;;;;;5034550;28;20182;-73
2022/09/07 01:54:36;;;;;;;76.37;72.00;;;17.20;99.90;;;;;;5032939;28;20179;-73
2022/09/07 01:57:09;;;;;;;29.60;27.60;;;17.20;99.90;;;;;;5032976;28;20186;-73
2022/09/07 01:59:43;;;;;;;14.63;13.33;;;17.30;99.90;;;;;;5033110;28;20199;-73
2022/09/07 02:02:19;;;;;;;18.07;16.57;;;17.40;99.90;;;;;;5033182;28;20233;-73
2022/09/07 02:04:59;;;;;;;8.67;7.87;;;17.40;99.90;;;;;;5033706;28;20191;-73
2022/09/07 02:07:45;;;;;;;9.90;8.93;;;17.40;99.90;;;;;;5032710;28;20214;-73
2022/09/07 02:10:21;;;;;;;11.80;10.70;;;17.40;99.90;;;;;;5033320;28;20608;-72
2022/09/07 02:13:13;;;;;;;9.53;8.47;;;17.40;99.90;;;;;;5032582;28;20186;-74
2022/09/07 02:15:48;;;;;;;19.53;17.73;;;17.40;99.90;;;;;;5033138;28;20187;-74
2022/09/07 02:18:14;;;;;;;17.53;15.77;;;17.40;99.90;;;;;;5031992;28;20218;-73
2022/09/07 02:20:47;;;;;;;13.77;12.73;;;17.40;99.90;;;;;;5031671;28;20202;-73
2022/09/07 02:23:19;;;;;;;13.73;12.47;;;17.40;99.90;;;;;;5033083;28;20194;-73
2022/09/07 02:25:52;;;;;;;18.77;17.67;;;17.50;99.90;;;;;;5032815;28;20245;-73
2022/09/07 02:28:23;;;;;;;18.37;16.40;;;17.50;99.90;;;;;;5031905;28;20214;-73
2022/09/07 02:30:50;;;;;;;23.03;21.63;;;17.50;99.90;;;;;;5031786;28;20290;-74
2022/09/07 02:33:15;;;;;;;20.20;18.77;;;17.50;99.90;;;;;;5031371;28;20206;-74
2022/09/07 02:35:41;;;;;;;11.33;10.33;;;17.60;99.90;;;;;;5032685;28;20646;-73
2022/09/07 02:38:07;;;;;;;10.37;9.47;;;17.60;99.90;;;;;;5030888;28;20210;-73
2022/09/07 02:40:33;;;;;;;11.17;10.10;;;17.60;99.90;;;;;;5033547;28;20301;-73
2022/09/07 02:43:04;;;;;;;13.40;10.47;;;17.60;99.90;;;;;;5037840;28;20202;-73
2022/09/07 02:45:57;;;;;;;10.53;9.50;;;17.60;99.90;;;;;;5051005;28;20179;-73
2022/09/07 02:48:53;;;;;;;11.80;9.17;;;17.60;99.90;;;;;;5030571;28;20214;-73
2022/09/07 02:51:28;;;;;;;17.37;15.83;;;17.60;99.90;;;;;;5031535;28;20546;-73
2022/09/07 02:54:20;;;;;;;14.13;13.03;;;17.60;99.90;;;;;;5032581;28;20586;-73
2022/09/07 02:56:51;;;;;;;13.90;12.67;;;17.60;99.90;;;;;;5030214;28;20199;-73
2022/09/07 02:59:17;;;;;;;14.87;12.27;;;17.60;99.90;;;;;;5031921;28;20182;-73
2022/09/07 03:02:29;;;;;;;15.47;13.53;;;17.50;99.90;;;;;;5032394;28;20602;-73
2022/09/07 03:05:04;;;;;;;14.33;13.23;;;17.50;99.90;;;;;;5031792;28;20183;-74
2022/09/07 03:07:39;;;;;;;18.90;17.80;;;17.50;99.90;;;;;;5030569;28;20202;-73
2022/09/07 03:10:07;;;;;;;28.07;25.77;;;17.40;99.90;;;;;;5031874;28;20214;-73
2022/09/07 03:12:43;;;;;;;18.33;16.53;;;17.30;99.90;;;;;;5030363;28;20203;-74
2022/09/07 03:15:14;;;;;;;20.83;18.87;;;17.30;99.90;;;;;;5032185;28;20667;-73
2022/09/07 03:17:41;;;;;;;15.87;14.43;;;17.30;99.90;;;;;;5030692;28;20282;-74
2022/09/07 03:20:08;;;;;;;15.70;14.63;;;17.20;99.90;;;;;;5031226;28;20222;-73
2022/09/07 03:22:33;;;;;;;13.50;12.13;;;17.20;99.90;;;;;;5030792;28;20721;-73
2022/09/07 03:24:59;;;;;;;11.97;10.87;;;17.10;99.90;;;;;;5031555;28;20191;-72
2022/09/07 03:27:25;;;;;;;10.53;9.63;;;17.10;99.90;;;;;;5028970;28;20557;-74
2022/09/07 03:29:51;;;;;;;12.97;11.93;;;17.10;99.90;;;;;;5031211;28;20206;-73
2022/09/07 03:32:17;;;;;;;16.23;14.67;;;17.00;99.90;;;;;;5031517;28;20187;-73
2022/09/07 03:34:43;;;;;;;21.13;19.63;;;17.00;99.90;;;;;;5031838;28;20179;-73
2022/09/07 03:37:08;;;;;;;27.30;25.53;;;16.90;99.90;;;;;;5031277;28;20183;-73
2022/09/07 03:39:35;;;;;;;42.50;39.70;;;16.90;99.90;;;;;;5030246;28;20297;-73
2022/09/07 03:42:01;;;;;;;61.27;57.90;;;16.80;99.90;;;;;;5032062;28;20269;-73
2022/09/07 03:44:27;;;;;;;53.53;50.37;;;16.70;99.90;;;;;;5031295;28;20183;-73
2022/09/07 03:46:53;;;;;;;60.43;57.03;;;16.80;99.90;;;;;;5030055;28;20228;-73
2022/09/07 03:49:19;;;;;;;55.50;52.30;;;16.80;99.90;;;;;;5031533;28;20206;-73
2022/09/07 03:51:44;;;;;;;53.20;50.00;;;16.90;99.90;;;;;;5031680;28;20175;-73
2022/09/07 03:54:10;;;;;;;38.23;35.77;;;16.90;99.90;;;;;;5030584;28;20181;-73
2022/09/07 03:56:36;;;;;;;88.43;83.57;;;17.00;99.90;;;;;;5023253;28;20580;-73
2022/09/07 03:59:02;;;;;;;95.73;90.23;;;17.10;99.90;;;;;;5029904;28;20183;-73
2022/09/07 04:01:28;;;;;;;93.97;88.43;;;17.10;99.90;;;;;;5031278;28;20182;-73
2022/09/07 04:03:57;;;;;;;160.23;151.37;;;17.10;99.90;;;;;;5029255;28;20182;-73
2022/09/07 04:06:24;;;;;;;165.93;156.87;;;17.10;99.90;;;;;;5031784;28;20183;-73
2022/09/07 04:08:50;;;;;;;142.50;134.30;;;17.00;99.90;;;;;;5029465;28;20210;-73
2022/09/07 04:11:17;;;;;;;142.03;134.33;;;17.00;99.90;;;;;;5030988;28;20202;-73
2022/09/07 04:13:45;;;;;;;145.83;137.60;;;17.00;99.90;;;;;;5031860;28;20175;-74
2022/09/07 04:16:22;;;;;;;102.97;97.00;;;16.90;99.90;;;;;;5030973;28;20187;-74
2022/09/07 04:18:49;;;;;;;153.23;144.73;;;16.90;99.90;;;;;;5038387;28;20722;-73
2022/09/07 04:21:16;;;;;;;117.30;109.97;;;16.90;99.90;;;;;;5039552;28;20194;-75
2022/09/07 04:23:43;;;;;;;129.10;121.43;;;16.90;99.90;;;;;;5031540;28;20187;-74
2022/09/07 04:26:14;;;;;;;112.03;105.63;;;16.90;99.90;;;;;;5030262;28;20178;-75
2022/09/07 04:28:40;;;;;;;149.70;141.33;;;16.90;99.90;;;;;;5029855;28;20280;-74
2022/09/07 04:31:07;;;;;;;134.57;127.03;;;16.90;99.90;;;;;;5030975;28;20310;-74
2022/09/07 04:33:33;;;;;;;126.00;118.93;;;16.90;99.90;;;;;;5030057;28;20186;-74
2022/09/07 04:36:00;;;;;;;148.07;139.27;;;16.90;99.90;;;;;;5030730;28;20179;-74
2022/09/07 04:38:26;;;;;;;124.30;117.13;;;16.90;99.90;;;;;;5030331;28;20215;-74
2022/09/07 04:41:00;;;;;;;132.97;125.37;;;16.90;99.90;;;;;;5038681;23;20226;-75
2022/09/07 04:43:26;;;;;;;253.17;238.57;;;16.90;99.90;;;;;;5009042;28;20194;-77
2022/09/07 04:45:52;;;;;;;184.53;174.50;;;16.90;99.90;;;;;;5043074;28;20238;-75
2022/09/07 04:48:18;;;;;;;143.37;135.60;;;16.90;99.90;;;;;;5009303;28;20598;-75
2022/09/07 04:50:44;;;;;;;190.83;180.20;;;16.90;99.90;;;;;;5011128;28;20203;-75
2022/09/07 04:53:10;;;;;;;155.00;146.63;;;16.80;99.90;;;;;;5009846;28;20230;-75
2022/09/07 04:55:36;;;;;;;140.20;132.30;;;16.80;99.90;;;;;;5009181;28;20191;-75
2022/09/07 04:58:01;;;;;;;135.83;128.33;;;16.70;99.90;;;;;;5012296;28;20191;-75
2022/09/07 05:00:28;;;;;;;169.40;160.10;;;16.70;99.90;;;;;;5014823;28;20196;-75
2022/09/07 05:02:53;;;;;;;172.07;162.20;;;16.70;99.90;;;;;;5013937;28;20188;-75
2022/09/07 05:05:19;;;;;;;167.07;156.97;;;16.70;99.90;;;;;;5015046;28;20175;-74
2022/09/07 05:07:46;;;;;;;132.90;125.33;;;16.60;99.90;;;;;;5012506;28;20601;-75
2022/09/07 05:10:12;;;;;;;106.67;100.23;;;16.60;99.90;;;;;;5013670;28;20211;-74
2022/09/07 05:12:39;;;;;;;107.23;100.87;;;16.60;99.90;;;;;;5014126;28;20207;-75
2022/09/07 05:15:05;;;;;;;57.43;53.77;;;16.60;99.90;;;;;;5013278;28;20207;-76
2022/09/07 05:17:31;;;;;;;58.57;54.87;;;16.60;99.90;;;;;;5012667;28;20191;-75
2022/09/07 05:19:57;;;;;;;88.60;83.10;;;16.60;99.90;;;;;;5014471;28;20203;-76
2022/09/07 05:22:26;;;;;;;71.80;67.60;;;16.60;99.90;;;;;;5013083;28;20207;-75
2022/09/07 05:24:52;;;;;;;91.17;85.40;;;16.70;99.90;;;;;;5012505;28;20179;-75
2022/09/07 05:27:18;;;;;;;111.00;105.00;;;16.70;99.90;;;;;;5013734;28;20532;-75
2022/09/07 05:29:44;;;;;;;123.67;116.27;;;16.60;99.90;;;;;;5012763;28;20211;-75
2022/09/07 05:32:10;;;;;;;142.07;134.00;;;16.60;99.90;;;;;;5013923;28;20188;-77
2022/09/07 05:34:35;;;;;;;142.07;134.17;;;16.50;99.90;;;;;;5014780;28;20172;-75
2022/09/07 05:37:02;;;;;;;64.23;60.33;;;16.50;99.90;;;;;;5012237;28;20184;-75
2022/09/07 05:39:28;;;;;;;56.57;52.70;;;16.50;99.90;;;;;;5013826;28;20191;-75
2022/09/07 05:41:54;;;;;;;31.83;29.73;;;16.60;99.90;;;;;;5013362;28;20187;-75
2022/09/07 05:44:20;;;;;;;73.40;68.53;;;16.70;99.90;;;;;;5013924;28;20226;-75
2022/09/07 05:46:46;;;;;;;116.00;109.40;;;17.10;99.90;;;;;;5014204;28;20191;-75
2022/09/07 05:49:11;;;;;;;25.20;23.20;;;17.50;99.90;;;;;;5012977;28;20204;-74
2022/09/07 05:51:37;;;;;;;19.00;17.80;;;18.00;99.90;;;;;;5013766;28;20896;-75
2022/09/07 05:54:03;;;;;;;130.63;123.87;;;18.30;99.90;;;;;;5013907;28;20207;-74
2022/09/07 05:56:32;;;;;;;56.80;53.43;;;18.70;99.90;;;;;;5012561;28;20198;-75
2022/09/07 05:58:58;;;;;;;22.67;21.17;;;19.10;99.90;;;;;;5012839;28;20184;-74
2022/09/07 06:01:24;;;;;;;12.07;10.53;;;19.40;99.90;;;;;;5012870;28;20634;-74
2022/09/07 06:03:49;;;;;;;67.90;64.30;;;19.60;99.90;;;;;;5014601;28;20184;-74
2022/09/07 06:06:18;;;;;;;71.93;68.13;;;19.70;99.90;;;;;;5014314;28;20194;-75
2022/09/07 06:08:46;;;;;;;68.57;64.47;;;19.80;99.90;;;;;;5011941;28;20204;-76
2022/09/07 06:11:15;;;;;;;35.87;33.77;;;20.10;99.90;;;;;;5013638;28;20206;-75
2022/09/07 06:13:41;;;;;;;54.58;51.83;;;20.50;99.90;;;;;;5028921;28;20183;-75
2022/09/07 06:16:09;;;;;;;21.23;19.63;;;21.10;99.90;;;;;;5029550;28;20345;-75
2022/09/07 06:18:37;;;;;;;11.30;9.85;;;21.50;99.90;;;;;;5013640;28;20675;-75
2022/09/07 06:21:05;;;;;;;14.60;9.30;;;21.90;99.90;;;;;;5013779;28;20286;-75
2022/09/07 06:23:32;;;;;;;9.70;8.80;;;22.30;99.90;;;;;;5013400;28;20183;-75
2022/09/07 06:25:58;;;;;;;223.20;211.77;;;22.70;99.90;;;;;;5013518;28;20187;-75
2022/09/07 06:28:32;;;;;;;299.45;284.25;;;23.00;99.90;;;;;;5012554;28;20692;-75
2022/09/07 06:31:06;;;;;;;125.30;118.70;;;23.20;99.90;;;;;;5012007;28;20592;-75
2022/09/07 06:33:33;;;;;;;62.78;58.95;;;23.60;99.90;;;;;;5013324;28;20190;-74
2022/09/07 06:36:01;;;;;;;32.75;30.98;;;23.70;99.90;;;;;;5013243;28;20708;-74
2022/09/07 06:38:33;;;;;;;19.83;18.27;;;24.10;99.90;;;;;;5012391;28;20234;-74
2022/09/07 06:41:01;;;;;;;11.95;9.80;;;24.40;99.90;;;;;;5013134;28;20302;-74
2022/09/07 06:43:27;;;;;;;11.68;10.23;;;24.50;99.90;;;;;;5013031;28;20175;-74
2022/09/07 06:45:53;;;;;;;13.88;10.95;;;24.90;99.90;;;;;;5013160;28;20190;-74
2022/09/07 06:48:20;;;;;;;18.23;16.70;;;25.00;99.90;;;;;;5012105;28;20183;-74
2022/09/07 06:51:06;;;;;;;19.60;18.23;;;25.10;99.90;;;;;;5028351;28;20199;-74
2022/09/07 06:53:35;;;;;;;13.07;11.77;;;25.60;99.90;;;;;;5013101;28;20603;-74
2022/09/07 06:56:04;;;;;;;10.55;9.77;;;25.90;99.90;;;;;;5013010;28;20614;-74
2022/09/07 06:58:30;;;;;;;10.00;9.30;;;26.00;99.90;;;;;;5012130;28;20186;-74
2022/09/07 07:00:56;;;;;;;8.95;8.07;;;26.30;99.90;;;;;;5028126;28;20195;-74
2022/09/07 07:03:22;;;;;;;9.20;8.30;;;26.30;99.90;;;;;;5012689;28;20187;-74
2022/09/07 07:05:55;;;;;;;9.23;8.50;;;26.50;99.90;;;;;;5013046;28;20346;-74
2022/09/07 07:08:23;;;;;;;8.60;7.80;;;26.10;99.90;;;;;;5027088;28;20184;-74
2022/09/07 07:10:50;;;;;;;17.52;16.42;;;25.60;99.90;;;;;;5012673;28;20207;-74
2022/09/07 07:13:17;;;;;;;15.93;14.80;;;25.00;99.90;;;;;;5012861;28;20179;-74
2022/09/07 07:15:44;;;;;;;16.10;14.90;;;25.00;99.90;;;;;;5012721;28;20202;-74
2022/09/07 07:18:10;;;;;;;14.98;13.88;;;25.30;99.90;;;;;;5010549;28;20187;-74
2022/09/07 07:20:39;;;;;;;14.27;13.15;;;25.60;99.90;;;;;;5012969;28;20219;-74
2022/09/07 07:23:06;;;;;;;14.05;13.07;;;25.40;99.90;;;;;;5012579;28;20267;-74
2022/09/07 07:25:35;;;;;;;23.75;22.02;;;25.00;99.90;;;;;;5012404;28;20263;-74
2022/09/07 07:28:03;;;;;;;14.65;13.48;;;24.60;99.90;;;;;;5011889;28;20266;-74
2022/09/07 07:30:29;;;;;;;11.00;10.15;;;24.40;99.90;;;;;;5028538;28;20221;-74
2022/09/07 07:32:56;;;;;;;8.05;6.05;;;24.20;99.90;;;;;;5012682;28;20187;-74
2022/09/07 07:35:22;;;;;;;53.58;50.75;;;24.00;99.90;;;;;;5027933;28;20226;-73
2022/09/07 07:37:54;;;;;;;42.22;39.75;;;23.80;99.90;;;;;;5026874;28;20280;-73
2022/09/07 07:40:20;;;;;;;152.35;144.88;;;23.80;99.90;;;;;;5013844;28;20247;-73
2022/09/07 07:42:46;;;;;;;172.35;163.98;;;23.70;99.90;;;;;;5027690;28;20210;-73
2022/09/07 07:45:13;;;;;;;124.57;118.20;;;23.90;99.90;;;;;;5012151;28;20215;-74
2022/09/07 07:47:39;;;;;;;38.50;36.28;;;24.50;99.90;;;;;;5026745;28;20242;-74
2022/09/07 07:50:07;;;;;;;9.30;8.00;;;25.40;99.90;;;;;;5011961;28;20306;-74
2022/09/07 07:52:37;;;;;;;8.02;7.53;;;25.40;99.90;;;;;;5012012;28;20199;-74
2022/09/07 07:55:04;;;;;;;13.63;12.70;;;25.40;99.90;;;;;;5012048;28;20184;-73
2022/09/07 07:57:30;;;;;;;21.25;19.80;;;25.50;99.90;;;;;;5011348;28;20229;-74
2022/09/07 07:59:56;;;;;;;23.15;21.80;;;25.70;99.90;;;;;;5011982;28;20256;-74
2022/09/07 08:02:24;;;;;;;14.05;12.95;;;26.30;99.90;;;;;;5026883;28;20180;-74
2022/09/07 08:04:51;;;;;;;14.73;13.73;;;26.90;99.90;;;;;;5011841;28;20330;-74
2022/09/07 08:07:18;;;;;;;7.82;7.13;;;27.40;99.90;;;;;;5009878;28;20180;-74
2022/09/07 08:09:46;;;;;;;11.60;10.63;;;27.30;99.90;;;;;;5026809;28;20216;-74
2022/09/07 08:12:17;;;;;;;11.10;10.40;;;27.60;99.90;;;;;;5010442;28;20179;-74
2022/09/07 08:14:45;;;;;;;8.25;7.55;;;28.10;99.90;;;;;;5011831;28;20183;-74
2022/09/07 08:17:14;;;;;;;12.27;11.38;;;28.30;99.90;;;;;;5011004;28;20553;-74
2022/09/07 08:19:40;;;;;;;6.05;5.45;;;29.10;99.90;;;;;;5011440;28;20254;-74
2022/09/07 08:22:08;;;;;;;7.03;4.70;;;29.70;99.90;;;;;;5011731;28;20234;-74
2022/09/07 08:24:34;;;;;;;5.35;4.80;;;29.60;99.90;;;;;;5011806;28;20188;-74
2022/09/07 08:27:00;;;;;;;7.75;4.72;;;29.60;99.90;;;;;;5026079;28;20546;-74
2022/09/07 08:29:27;;;;;;;8.13;4.25;;;29.50;99.90;;;;;;5011294;28;20222;-74
2022/09/07 08:31:53;;;;;;;11.90;4.95;;;29.40;99.90;;;;;;5026106;28;20187;-74
2022/09/07 08:34:20;;;;;;;6.10;5.50;;;29.60;99.90;;;;;;5011428;28;20179;-73
2022/09/07 08:36:46;;;;;;;7.32;5.63;;;29.70;99.90;;;;;;5010775;28;20186;-74
2022/09/07 08:39:12;;;;;;;8.20;7.38;;;30.00;99.90;;;;;;5011279;28;20183;-74
2022/09/07 08:41:50;;;;;;;7.22;5.95;;;30.00;99.90;;;;;;5011273;28;20261;-74
2022/09/07 08:44:31;;;;;;;7.25;5.45;;;30.00;99.90;;;;;;5011278;28;20195;-73
2022/09/07 08:47:05;;;;;;;6.10;5.25;;;30.10;99.90;;;;;;5025857;28;20179;-74
2022/09/07 08:49:45;;;;;;;8.90;5.20;;;30.10;99.90;;;;;;5011040;28;20247;-74
2022/09/07 08:52:38;;;;;;;6.78;4.40;;;30.00;99.90;;;;;;5011331;28;20663;-73
2022/09/07 08:55:33;;;;;;;7.88;4.80;;;29.90;99.90;;;;;;5012090;28;20175;-73
2022/09/07 08:58:22;;;;;;;11.88;5.90;;;29.90;99.90;;;;;;5010171;28;20194;-74
2022/09/07 09:00:49;;;;;;;6.63;5.00;;;30.20;99.90;;;;;;5011033;28;20627;-74
2022/09/07 09:03:26;;;;;;;9.23;5.85;;;30.50;99.90;;;;;;5010867;28;20184;-74
2022/09/07 09:06:21;;;;;;;8.32;6.75;;;30.30;99.90;;;;;;5026383;28;20176;-74
2022/09/07 09:09:15;;;;;;;13.90;12.57;;;30.40;99.90;;;;;;5010191;28;20212;-74
2022/09/07 09:12:07;;;;;;;8.25;7.53;;;29.90;99.90;;;;;;5011122;28;20283;-75
2022/09/07 09:14:37;;;;;;;7.20;4.20;;;29.60;99.90;;;;;;5011257;28;20179;-74
2022/09/07 09:17:11;;;;;;;11.15;7.45;;;29.90;99.90;;;;;;5025541;28;20183;-74
2022/09/07 09:20:01;;;;;;;10.23;6.07;;;30.00;99.90;;;;;;5010759;28;20180;-74
2022/09/07 09:22:27;;;;;;;11.30;10.57;;;30.50;99.90;;;;;;5011115;28;20198;-75
2022/09/07 09:25:13;;;;;;;12.93;11.55;;;30.40;99.80;;;;;;5011111;28;20184;-75
2022/09/07 09:27:40;;;;;;;12.80;11.30;;;30.40;99.90;;;;;;5010681;28;20227;-75
2022/09/07 09:30:14;;;;;;;14.40;12.30;;;30.60;99.60;;;;;;5010762;28;20242;-75
2022/09/07 09:32:42;;;;;;;12.05;10.75;;;30.30;99.80;;;;;;5010863;28;20183;-75
2022/09/07 09:35:32;;;;;;;12.07;10.88;;;30.30;99.40;;;;;;5010896;28;20656;-75
2022/09/07 09:38:02;;;;;;;14.45;13.15;;;31.00;98.80;;;;;;5010193;28;20688;-75
2022/09/07 09:40:33;;;;;;;13.25;12.38;;;30.60;98.60;;;;;;5010653;28;20273;-75
2022/09/07 09:43:04;;;;;;;11.93;10.82;;;30.50;99.10;;;;;;5010952;28;20195;-75
2022/09/07 09:45:41;;;;;;;11.52;10.40;;;30.40;99.20;;;;;;5012557;28;20191;-75
2022/09/07 09:48:10;;;;;;;13.85;12.65;;;30.90;98.10;;;;;;5028693;28;20179;-75
2022/09/07 09:50:39;;;;;;;9.10;8.43;;;30.40;98.80;;;;;;5014098;28;20222;-75
2022/09/07 09:53:06;;;;;;;19.65;17.90;;;29.90;98.70;;;;;;5014735;28;20180;-75
2022/09/07 09:55:35;;;;;;;7.20;6.45;;;29.40;99.50;;;;;;5014245;28;20242;-75
2022/09/07 09:58:25;;;;;;;6.70;5.75;;;29.20;99.90;;;;;;5013278;28;20207;-75
2022/09/07 10:01:01;;;;;;;8.88;7.13;;;29.10;99.90;;;;;;5012798;28;20552;-75
2022/09/07 10:03:33;;;;;;;11.25;8.35;;;29.00;99.90;;;;;;5028925;28;20206;-75
2022/09/07 10:06:03;;;;;;;12.38;6.55;;;29.50;99.90;;;;;;5013959;28;20183;-75
2022/09/07 10:08:30;;;;;;;8.25;6.70;;;29.50;99.70;;;;;;5013246;28;20221;-75
2022/09/07 10:11:01;;;;;;;7.75;7.00;;;29.20;99.90;;;;;;5013875;28;20191;-74
2022/09/07 10:13:30;;;;;;;9.73;8.93;;;29.30;99.90;;;;;;5013751;28;20183;-74
2022/09/07 10:16:00;;;;;;;8.00;6.70;;;30.20;99.80;;;;;;5028868;28;20179;-75
2022/09/07 10:18:39;;;;;;;15.18;12.68;;;30.40;98.80;;;;;;5012900;28;20316;-75
2022/09/07 10:21:34;;;;;;;17.33;16.17;;;31.10;96.80;;;;;;5013662;28;20219;-75
2022/09/07 10:24:00;;;;;;;32.47;30.65;;;31.70;95.80;;;;;;5024560;28;20195;-74
2022/09/07 10:26:30;;;;;;;37.63;35.03;;;31.40;95.00;;;;;;5013393;28;20179;-74
2022/09/07 10:29:12;;;;;;;23.90;22.13;;;30.60;96.10;;;;;;5012361;28;20212;-75
2022/09/07 10:32:17;;;;;;;19.38;17.92;;;30.30;97.00;;;;;;5012219;28;20246;-75
2022/09/07 10:34:55;;;;;;;43.75;41.42;;;31.40;96.30;;;;;;5028077;28;20200;-75
2022/09/07 10:37:28;;;;;;;69.22;65.43;;;32.70;94.20;;;;;;5012656;28;20270;-75
2022/09/07 10:40:32;;;;;;;48.38;45.40;;;33.60;92.20;;;;;;5034736;23;20247;-73
2022/09/07 10:43:36;;;;;;;52.00;49.28;;;32.40;92.10;;;;;;5011938;28;20578;-73
2022/09/07 10:46:13;;;;;;;48.15;45.33;;;32.80;92.60;;;;;;5013786;28;20180;-73
2022/09/07 10:49:04;;;;;;;20.63;19.17;;;33.30;91.90;;;;;;5012435;28;20214;-73
2022/09/07 10:51:38;;;;;;;11.52;8.60;;;34.00;90.20;;;;;;4998751;28;20657;-73
2022/09/07 10:54:37;;;;;;;46.17;43.58;;;34.90;88.10;;;;;;4992569;28;20176;-73
2022/09/07 10:57:11;;;;;;;95.03;90.05;;;35.80;83.20;;;;;;4993806;28;20184;-73
2022/09/07 10:59:37;;;;;;;34.45;32.20;;;35.30;81.80;;;;;;4993009;28;20198;-73
2022/09/07 11:02:15;;;;;;;63.20;59.65;;;35.20;81.20;;;;;;4993330;28;20204;-73
2022/09/07 11:05:09;;;;;;;41.05;38.45;;;34.80;81.80;;;;;;4993374;28;20184;-73
2022/09/07 11:07:47;;;;;;;39.78;37.35;;;35.10;79.10;;;;;;4992396;28;20649;-73
2022/09/07 11:10:45;;;;;;;42.50;39.97;;;35.00;78.80;;;;;;4992024;28;20274;-73
2022/09/07 11:13:16;;;;;;;57.95;55.00;;;34.90;79.80;;;;;;4991900;28;20645;-73
2022/09/07 11:15:53;;;;;;;86.35;81.72;;;34.30;80.40;;;;;;4991851;28;20188;-73
2022/09/07 11:18:31;;;;;;;38.42;35.85;;;33.80;81.80;;;;;;4992304;28;20199;-73
2022/09/07 11:20:59;;;;;;;34.00;31.55;;;34.00;81.10;;;;;;4991947;28;20204;-71
2022/09/07 11:23:43;;;;;;;31.15;29.27;;;34.10;80.30;;;;;;4992871;28;20181;-71
2022/09/07 11:26:34;;;;;;;27.63;25.90;;;33.90;79.80;;;;;;4992955;28;20648;-73
2022/09/07 11:29:11;;;;;;;63.42;59.88;;;33.40;80.50;;;;;;4992582;28;20212;-73
2022/09/07 11:31:47;;;;;;;64.68;61.05;;;32.50;81.60;;;;;;4992605;28;20211;-71
2022/09/07 11:34:18;;;;;;;15.80;14.70;;;31.80;85.20;;;;;;4992850;28;20676;-73
2022/09/07 11:37:15;;;;;;;15.27;14.30;;;30.90;87.30;;;;;;4992475;28;20184;-74
2022/09/07 11:40:20;;;;;;;74.82;70.47;;;29.90;90.30;;;;;;4992924;28;20534;-73
2022/09/07 11:43:00;;;;;;;33.17;31.38;;;29.00;92.00;;;;;;4990183;28;20227;-73
2022/09/07 11:45:47;;;;;;;14.48;11.73;;;28.50;95.80;;;;;;4992595;28;20199;-72
2022/09/07 11:48:30;;;;;;;42.90;39.78;;;27.60;99.90;;;;;;4991645;28;20195;-73
2022/09/07 11:51:03;;;;;;;12.75;11.52;;;25.90;99.90;;;;;;4992493;28;20208;-73
2022/09/07 11:53:35;;;;;;;48.92;45.58;;;24.50;99.90;;;;;;4992415;28;20595;-73
2022/09/07 11:56:16;;;;;;;247.13;232.77;;;24.00;99.90;;;;;;4991371;28;20259;-73
2022/09/07 11:59:04;;;;;;;23.08;21.45;;;24.60;99.90;;;;;;4991488;28;20208;-73
2022/09/07 12:01:35;;;;;;;27.33;25.45;;;25.90;99.90;;;;;;4992306;28;20212;-73
2022/09/07 12:04:43;;;;;;;298.80;282.83;;;28.20;99.90;;;;;;4992227;28;20188;-73
2022/09/07 12:07:32;;;;;;;27.20;25.02;;;30.20;99.90;;;;;;4989671;28;20187;-73
2022/09/07 12:10:21;;;;;;;9.30;8.50;;;31.40;99.90;;;;;;4992008;28;20208;-73
2022/09/07 12:13:05;;;;;;;12.00;5.43;;;32.70;99.90;;;;;;4992017;28;20198;-71
2022/09/07 12:15:49;;;;;;;8.32;6.15;;;34.00;97.90;;;;;;4992096;28;20188;-73
2022/09/07 12:18:41;;;;;;;30.30;28.75;;;34.50;93.90;;;;;;4990156;28;20216;-71
2022/09/07 12:21:29;;;;;;;43.75;41.15;;;35.60;92.10;;;;;;4991051;28;20200;-71
2022/09/07 12:23:55;;;;;;;43.22;40.38;;;36.90;80.50;;;;;;4991891;28;20176;-73
2022/09/07 12:26:41;;;;;;;83.40;79.28;;;37.30;73.70;;;;;;4991932;28;20184;-73
2022/09/07 12:29:22;;;;;;;94.72;89.78;;;37.40;70.50;;;;;;4991162;28;20800;-73
2022/09/07 12:31:54;;;;;;;66.03;62.35;;;37.10;70.80;;;;;;4992280;28;20243;-73
2022/09/07 12:34:32;;;;;;;19.10;17.52;;;37.30;68.60;;;;;;4996412;28;20196;-73
2022/09/07 12:37:26;;;;;;;17.45;16.20;;;37.60;66.10;;;;;;4991419;28;20199;-74
2022/09/07 12:40:26;;;;;;;18.00;16.65;;;37.70;64.30;;;;;;4991665;28;20267;-73
2022/09/07 12:43:13;;;;;;;37.42;35.50;;;37.30;64.60;;;;;;4990269;28;20191;-71
2022/09/07 12:45:39;;;;;;;51.20;48.33;;;37.40;63.40;;;;;;4991835;28;20184;-73
2022/09/07 12:48:14;;;;;;;243.18;230.98;;;37.30;63.40;;;;;;4990936;28;20183;-72
2022/09/07 12:51:17;;;;;;;172.68;163.85;;;38.20;60.50;;;;;;4991508;28;20227;-73
2022/09/07 12:54:00;;;;;;;256.42;243.55;;;38.50;63.00;;;;;;4991608;28;20179;-73
2022/09/07 12:56:48;;;;;;;270.25;256.58;;;39.00;60.30;;;;;;4991197;28;20231;-71
2022/09/07 12:59:39;;;;;;;230.82;218.77;;;38.30;56.50;;;;;;4993342;28;20180;-71